Terminal Aerodrome Forecast
Issued by NWS Melbourne, FL

Home | Current Version | Previous Version | Text Only | Print | Product List | Glossary On
Versions: 1 2 3 4 5 6 7 8 9 10 11 12 13 14 15
000
FTUS42 KMLB 211100 RRA
TAFVRB
TAF
KVRB 211141Z 2112/2212 28003KT 4SM MIFG SCT002 BKN150
      TEMPO 2112/2113 1/4SM FG VV002
     FM211400 26005KT P6SM SCT020 BKN100
     FM211800 09007KT P6SM VCTS SCT025CB BKN080
      TEMPO 2119/2121 3SM TSRA BKN030CB
     FM220100 VRB02KT P6SM FEW030 BKN120=

USA.gov is the U.S. government's official web portal to all federal, state and local government web resources and services.